createdAt,value
2019-04-16T00:02:18.481Z,95224.85
2019-04-16T00:05:09.132Z,95219.88
2019-04-16T00:08:01.845Z,95217.70
2019-04-16T00:10:44.035Z,95213.02
2019-04-16T00:13:19.885Z,95213.50
2019-04-16T00:15:47.503Z,95223.77
2019-04-16T00:18:18.483Z,95220.38
2019-04-16T00:20:58.262Z,95211.72
2019-04-16T00:23:37.624Z,95208.45
2019-04-16T00:26:05.781Z,95212.55
2019-04-16T00:28:33.389Z,95212.05
2019-04-16T00:31:01.022Z,95211.31
2019-04-16T00:33:28.583Z,95202.58
2019-04-16T00:35:56.134Z,95209.55
2019-04-16T00:38:23.534Z,95205.02
2019-04-16T00:40:50.992Z,95209.45
2019-04-16T00:43:18.463Z,95215.85
2019-04-16T00:45:45.921Z,95215.62
2019-04-16T00:48:13.906Z,95219.93
2019-04-16T00:50:41.477Z,95210.31
2019-04-16T00:53:09.261Z,95205.99
2019-04-16T00:55:36.848Z,95216.42
2019-04-16T00:58:04.465Z,95212.07
2019-04-16T01:00:32.037Z,95217.14
2019-04-16T01:02:59.574Z,95210.45
2019-04-16T01:05:27.232Z,95206.02
2019-04-16T01:07:54.701Z,95208.92
2019-04-16T01:10:22.232Z,95213.47
2019-04-16T01:12:49.706Z,95207.50
2019-04-16T01:15:17.268Z,95203.14
2019-04-16T01:17:44.835Z,95207.34
2019-04-16T01:20:13.087Z,95207.77
2019-04-16T01:22:40.745Z,95213.52
2019-04-16T01:25:08.447Z,95211.56
2019-04-16T01:27:42.489Z,95208.78
2019-04-16T01:30:12.228Z,95211.98
2019-04-16T01:32:53.779Z,95213.25
2019-04-16T01:35:40.760Z,95216.02
2019-04-16T01:38:33.807Z,95214.69
2019-04-16T01:41:04.029Z,95220.72
2019-04-16T01:43:31.610Z,95219.89
2019-04-16T01:46:01.440Z,95225.44
2019-04-16T01:48:28.478Z,95226.79
2019-04-16T01:50:55.988Z,95228.66
2019-04-16T01:53:23.537Z,95221.07
2019-04-16T01:55:51.044Z,95220.06
2019-04-16T01:58:19.063Z,95220.75
2019-04-16T02:00:46.635Z,95228.64
2019-04-16T02:03:17.558Z,95226.11
2019-04-16T02:05:43.718Z,95226.27
2019-04-16T02:08:11.249Z,95223.09
2019-04-16T02:10:39.150Z,95229.12
2019-04-16T02:13:06.962Z,95239.74
2019-04-16T02:15:34.609Z,95236.28
2019-04-16T02:18:02.122Z,95238.81
2019-04-16T02:20:29.678Z,95237.13
2019-04-16T02:22:57.302Z,95242.09
2019-04-16T02:25:24.869Z,95228.95
2019-04-16T02:27:54.209Z,95230.97
2019-04-16T02:30:21.726Z,95238.88
2019-04-16T02:32:49.333Z,95235.20
2019-04-16T02:35:16.959Z,95233.02
2019-04-16T02:37:44.516Z,95235.87
2019-04-16T02:40:16.894Z,95234.63
2019-04-16T02:42:41.586Z,95238.56
2019-04-16T02:45:09.207Z,95236.03
2019-04-16T02:47:41.863Z,95229.91
2019-04-16T02:50:09.318Z,95240.06
2019-04-16T02:52:52.464Z,95228.22
2019-04-16T02:55:29.424Z,95228.06
2019-04-16T02:58:02.365Z,95225.92
2019-04-16T03:00:50.804Z,95225.00
2019-04-16T03:03:25.706Z,95229.68
2019-04-16T03:05:55.047Z,95221.53
2019-04-16T03:08:22.644Z,95223.34
2019-04-16T03:10:50.252Z,95226.78
2019-04-16T03:13:23.040Z,95225.78
2019-04-16T03:16:06.045Z,95229.63
2019-04-16T03:18:39.196Z,95224.98
2019-04-16T03:21:06.856Z,95223.64
2019-04-16T03:23:37.522Z,95234.80
2019-04-16T03:26:04.429Z,95219.77
2019-04-16T03:28:32.089Z,95215.83
2019-04-16T03:30:59.732Z,95225.23
2019-04-16T03:33:28.669Z,95223.53
2019-04-16T03:35:57.829Z,95220.01
2019-04-16T03:38:25.668Z,95231.33
2019-04-16T03:40:55.908Z,95231.94
2019-04-16T03:43:22.640Z,95234.95
2019-04-16T03:45:50.143Z,95222.70
2019-04-16T03:48:17.680Z,95232.94
2019-04-16T03:50:45.106Z,95229.56
2019-04-16T03:53:16.317Z,95222.32
2019-04-16T03:55:42.208Z,95227.03
2019-04-16T03:58:09.800Z,95232.56
2019-04-16T04:00:37.403Z,95221.09
2019-04-16T04:03:04.958Z,95239.97
2019-04-16T04:05:35.073Z,95233.25
2019-04-16T04:08:01.901Z,95239.81
2019-04-16T04:10:31.286Z,95238.25
2019-04-16T04:12:58.926Z,95246.53
2019-04-16T04:15:28.355Z,95250.92
2019-04-16T04:17:55.844Z,95262.63
2019-04-16T04:20:23.327Z,95247.27
2019-04-16T04:22:50.907Z,95249.32
2019-04-16T04:25:18.549Z,95256.52
2019-04-16T04:27:46.705Z,95270.13
2019-04-16T04:30:16.488Z,95267.27
2019-04-16T04:32:47.274Z,95275.75
2019-04-16T04:35:13.468Z,95274.56
2019-04-16T04:37:41.013Z,95281.40
2019-04-16T04:40:08.586Z,95281.25
2019-04-16T04:42:36.101Z,95282.78
2019-04-16T04:45:08.365Z,95273.53
2019-04-16T04:47:33.881Z,95282.33
2019-04-16T04:50:03.335Z,95279.75
2019-04-16T04:52:30.933Z,95290.49
2019-04-16T04:54:58.351Z,95290.19
2019-04-16T04:57:28.423Z,95287.42
2019-04-16T04:59:55.337Z,95289.03
2019-04-16T05:02:22.732Z,95284.48
2019-04-16T05:05:09.817Z,95289.80
2019-04-16T05:07:37.367Z,95291.88
2019-04-16T05:10:07.574Z,95296.59
2019-04-16T05:12:34.448Z,95303.38
2019-04-16T05:15:03.894Z,95296.66
2019-04-16T05:17:31.362Z,95292.48
2019-04-16T05:19:58.859Z,95297.28
2019-04-16T05:22:26.426Z,95304.66
2019-04-16T05:24:54.003Z,95301.14
2019-04-16T05:27:21.692Z,95305.58
2019-04-16T05:29:49.651Z,95305.58
2019-04-16T05:32:17.225Z,95308.20
2019-04-16T05:34:44.852Z,95310.05
2019-04-16T05:37:12.308Z,95306.36
2019-04-16T05:39:39.850Z,95303.91
2019-04-16T05:42:07.372Z,95297.76
2019-04-16T05:44:34.870Z,95310.51
2019-04-16T05:47:04.515Z,95320.50
2019-04-16T05:49:32.249Z,95282.59
2019-04-16T05:52:02.888Z,95302.08
2019-04-16T05:54:41.510Z,95312.55
2019-04-16T05:57:11.407Z,95310.86
2019-04-16T05:59:38.978Z,95328.61
2019-04-16T06:02:20.643Z,95321.22
2019-04-16T06:04:48.135Z,95318.00
2019-04-16T06:07:15.632Z,95317.80
2019-04-16T06:09:44.397Z,95319.89
2019-04-16T06:12:12.653Z,95313.81
2019-04-16T06:15:05.393Z,95323.81
2019-04-16T06:17:50.099Z,95321.08
2019-04-16T06:20:46.344Z,95320.56
2019-04-16T06:23:21.525Z,95309.53
2019-04-16T06:26:16.608Z,95311.09
2019-04-16T06:29:03.079Z,95317.91
2019-04-16T06:31:46.058Z,95317.02
2019-04-16T06:34:36.051Z,95319.13
2019-04-16T06:37:14.591Z,95323.88
2019-04-16T06:40:01.887Z,95318.25
2019-04-16T06:42:38.512Z,95315.92
2019-04-16T06:45:23.140Z,95321.53
2019-04-16T06:48:01.655Z,95319.66
2019-04-16T06:50:40.557Z,95312.59
2019-04-16T06:53:16.017Z,95310.67
2019-04-16T06:56:05.493Z,95314.58
2019-04-16T06:58:57.183Z,95310.86
2019-04-16T07:01:42.057Z,95315.50
2019-04-16T07:04:35.052Z,95308.01
2019-04-16T07:07:13.152Z,95310.45
2019-04-16T07:10:02.871Z,95319.88
2019-04-16T07:12:37.974Z,95315.55
2019-04-16T07:15:03.378Z,95314.92
2019-04-16T07:17:33.670Z,95319.88
2019-04-16T07:20:00.453Z,95319.80
2019-04-16T07:22:28.022Z,95318.55
2019-04-16T07:25:03.380Z,95314.58
2019-04-16T07:27:38.578Z,95319.11
2019-04-16T07:30:11.602Z,95311.73
2019-04-16T07:33:01.339Z,95308.67
2019-04-16T07:35:50.087Z,95302.84
2019-04-16T07:38:39.838Z,95313.17
2019-04-16T07:41:42.789Z,95297.36
2019-04-16T07:44:30.998Z,95303.67
2019-04-16T07:47:10.978Z,95296.94
2019-04-16T07:49:44.809Z,95309.09
2019-04-16T07:52:30.214Z,95304.47
2019-04-16T07:55:29.292Z,95304.70
2019-04-16T07:57:57.085Z,95303.00
2019-04-16T08:00:24.564Z,95298.00
2019-04-16T08:02:53.778Z,95295.00
2019-04-16T08:05:21.564Z,95297.38
2019-04-16T08:07:49.774Z,95302.45
2019-04-16T08:10:18.515Z,95295.98
2019-04-16T08:12:50.214Z,95298.42
2019-04-16T08:15:17.759Z,95302.50
2019-04-16T08:17:45.353Z,95292.88
2019-04-16T08:20:13.107Z,95287.96
2019-04-16T08:22:40.543Z,95287.53
2019-04-16T08:25:08.205Z,95285.45
2019-04-16T08:27:35.662Z,95282.24
2019-04-16T08:30:06.103Z,95280.59
2019-04-16T08:32:33.705Z,95274.77
2019-04-16T08:35:01.123Z,95277.50
2019-04-16T08:37:28.666Z,95276.12
2019-04-16T08:39:56.204Z,95275.69
2019-04-16T08:42:25.729Z,95278.17
2019-04-16T08:44:53.189Z,95269.41
2019-04-16T08:47:20.818Z,95269.98
2019-04-16T08:49:53.662Z,95271.20
2019-04-16T08:52:17.854Z,95262.46
2019-04-16T08:54:50.022Z,95271.07
2019-04-16T08:57:14.740Z,95268.14
2019-04-16T08:59:43.267Z,95269.64
2019-04-16T09:02:10.908Z,95261.64
2019-04-16T09:04:38.368Z,95262.78
2019-04-16T09:07:12.058Z,95246.34
2019-04-16T09:10:01.002Z,95248.26
2019-04-16T09:12:28.621Z,95246.29
2019-04-16T09:14:56.626Z,95259.34
2019-04-16T09:17:41.702Z,95242.34
2019-04-16T09:20:11.752Z,95247.16
2019-04-16T09:22:48.754Z,95249.31
2019-04-16T09:25:23.323Z,95242.27
2019-04-16T09:27:54.614Z,95235.56
2019-04-16T09:30:50.867Z,95233.25
2019-04-16T09:33:24.153Z,95226.16
2019-04-16T09:35:57.918Z,95221.63
2019-04-16T09:38:31.474Z,95224.03
2019-04-16T09:41:21.247Z,95217.64
2019-04-16T09:43:53.782Z,95214.55
2019-04-16T09:46:44.684Z,95221.69
2019-04-16T09:48:50.673Z,95214.55
2019-04-16T09:51:20.575Z,95200.36
2019-04-16T09:53:47.536Z,95206.70
2019-04-16T09:56:30.000Z,95204.67
2019-04-16T09:59:02.236Z,95211.65
2019-04-16T10:01:39.826Z,95195.02
2019-04-16T10:04:09.157Z,95194.16
2019-04-16T10:06:36.667Z,95200.55
2019-04-16T10:09:05.639Z,95198.78
2019-04-16T10:11:35.714Z,95188.81
2019-04-16T10:14:04.007Z,95189.34
2019-04-16T10:16:31.506Z,95177.25
2019-04-16T10:18:58.991Z,95185.59
2019-04-16T10:21:28.823Z,95183.39
2019-04-16T10:24:15.285Z,95177.16
2019-04-16T10:26:44.308Z,95177.31
2019-04-16T10:29:14.233Z,95178.60
2019-04-16T10:31:41.990Z,95168.81
2019-04-16T10:34:09.685Z,95176.45
2019-04-16T10:36:38.114Z,95172.43
2019-04-16T10:39:28.490Z,95175.70
2019-04-16T10:42:10.980Z,95166.44
2019-04-16T10:45:00.911Z,95163.81
2019-04-16T10:47:40.731Z,95157.63
2019-04-16T10:50:18.091Z,95152.79
2019-04-16T10:53:03.655Z,95164.18
2019-04-16T10:55:48.574Z,95156.59
2019-04-16T10:58:44.650Z,95149.02
2019-04-16T11:01:41.074Z,95144.75
2019-04-16T11:04:34.328Z,95147.73
2019-04-16T11:07:06.636Z,95142.20
2019-04-16T11:09:34.121Z,95134.52
2019-04-16T11:12:04.802Z,95131.42
2019-04-16T11:14:31.188Z,95134.50
2019-04-16T11:16:58.644Z,95144.65
2019-04-16T11:19:26.098Z,95137.14
2019-04-16T11:21:53.554Z,95139.22
2019-04-16T11:24:21.135Z,95147.26
2019-04-16T11:26:48.649Z,95145.61
2019-04-16T11:29:16.286Z,95144.20
2019-04-16T11:31:44.182Z,95125.58
2019-04-16T11:34:12.098Z,95141.41
2019-04-16T11:36:39.998Z,95151.35
2019-04-16T11:39:08.965Z,95162.36
2019-04-16T11:41:36.692Z,95154.88
2019-04-16T11:44:15.243Z,95142.17
2019-04-16T11:46:34.161Z,95167.39
2019-04-16T11:49:01.931Z,95160.74
2019-04-16T11:51:29.556Z,95166.26
2019-04-16T11:53:57.102Z,95163.34
2019-04-16T11:56:24.653Z,95166.52
2019-04-16T11:58:52.122Z,95167.09
2019-04-16T12:01:45.363Z,95155.30
2019-04-16T12:04:32.461Z,95145.73
2019-04-16T12:07:25.512Z,95138.05
2019-04-16T12:10:05.110Z,95129.14
2019-04-16T12:12:38.944Z,95134.91
2019-04-16T12:15:23.909Z,95130.39
2019-04-16T12:18:17.080Z,95123.03
2019-04-16T12:21:09.204Z,95129.55
2019-04-16T12:23:54.727Z,95136.31
2019-04-16T12:26:40.341Z,95138.20
2019-04-16T12:29:25.833Z,95135.95
2019-04-16T12:32:07.787Z,95136.45
2019-04-16T12:34:53.155Z,95125.21
2019-04-16T12:37:38.907Z,95128.91
2019-04-16T12:40:32.186Z,95122.94
2019-04-16T12:43:05.574Z,95126.69
2019-04-16T12:45:53.501Z,95125.43
2019-04-16T12:48:40.961Z,95120.73
2019-04-16T12:51:18.932Z,95116.31
2019-04-16T12:54:04.888Z,95124.89
2019-04-16T12:56:50.445Z,95117.95
2019-04-16T12:59:25.007Z,95121.43
2019-04-16T13:02:20.131Z,95120.36
2019-04-16T13:04:55.843Z,95108.05
2019-04-16T13:07:31.479Z,95102.00
2019-04-16T13:10:27.061Z,95106.22
2019-04-16T13:13:22.703Z,95112.83
2019-04-16T13:16:07.462Z,95105.94
2019-04-16T13:18:57.227Z,95099.77
2019-04-16T13:21:28.043Z,95091.16
2019-04-16T13:24:07.642Z,95096.09
2019-04-16T13:27:03.399Z,95089.84
2019-04-16T13:29:32.106Z,95092.48
2019-04-16T13:31:59.970Z,95100.98
2019-04-16T13:34:27.565Z,95104.05
2019-04-16T13:36:59.359Z,95102.14
2019-04-16T13:39:42.510Z,95103.00
2019-04-16T13:42:10.004Z,95103.80
2019-04-16T13:44:43.875Z,95100.44
2019-04-16T13:47:11.446Z,95099.91
2019-04-16T13:50:02.628Z,95110.23
2019-04-16T13:52:27.836Z,95104.19
2019-04-16T13:55:14.946Z,95113.25
2019-04-16T13:57:46.206Z,95114.32
2019-04-16T14:00:19.643Z,95104.63
2019-04-16T14:02:55.593Z,95102.91
2019-04-16T14:05:23.572Z,95098.70
2019-04-16T14:07:51.089Z,95101.69
2019-04-16T14:10:18.691Z,95103.92
2019-04-16T14:12:46.249Z,95106.56
2019-04-16T14:15:14.006Z,95103.20
2019-04-16T14:17:52.574Z,95101.98
2019-04-16T14:20:13.930Z,95085.65
2019-04-16T14:22:42.486Z,95089.23
2019-04-16T14:25:11.642Z,95084.87
2019-04-16T14:27:39.244Z,95089.26
2019-04-16T14:30:30.631Z,95084.70
2019-04-16T14:32:58.189Z,95069.08
2019-04-16T14:35:33.643Z,95080.45
2019-04-16T14:37:57.183Z,95072.04
2019-04-16T14:40:25.883Z,95069.62
2019-04-16T14:42:57.419Z,95071.79
2019-04-16T14:45:57.632Z,95075.23
2019-04-16T14:48:14.174Z,95084.73
2019-04-16T14:50:41.794Z,95084.23
2019-04-16T14:53:09.291Z,95092.77
2019-04-16T14:55:59.106Z,95081.97
2019-04-16T14:58:36.116Z,95081.20
2019-04-16T15:01:26.175Z,95074.89
2019-04-16T15:04:09.460Z,95074.69
2019-04-16T15:07:02.469Z,95080.94
2019-04-16T15:09:42.875Z,95074.52
2019-04-16T15:12:27.267Z,95074.27
2019-04-16T15:14:59.434Z,95062.00
2019-04-16T15:18:04.422Z,95062.13
2019-04-16T15:20:51.484Z,95065.44
2019-04-16T15:23:50.873Z,95061.15
2019-04-16T15:26:52.787Z,95060.03
2019-04-16T15:29:44.105Z,95057.85
2019-04-16T15:32:35.320Z,95063.78
2019-04-16T15:35:03.391Z,95060.03
2019-04-16T15:37:37.987Z,95055.50
2019-04-16T15:40:10.555Z,95056.74
2019-04-16T15:42:56.268Z,95064.75
2019-04-16T15:45:29.921Z,95052.11
2019-04-16T15:48:34.511Z,95056.45
2019-04-16T15:51:17.927Z,95052.89
2019-04-16T15:53:51.295Z,95056.92
2019-04-16T15:56:30.080Z,95043.31
2019-04-16T15:59:13.189Z,95045.75
2019-04-16T16:02:03.016Z,95053.20
2019-04-16T16:04:50.754Z,95052.39
2019-04-16T16:07:24.444Z,95050.54
2019-04-16T16:10:13.753Z,95051.97
2019-04-16T16:12:41.278Z,95056.05
2019-04-16T16:15:09.876Z,95053.36
2019-04-16T16:17:37.453Z,95056.98
2019-04-16T16:20:09.621Z,95058.08
2019-04-16T16:22:35.183Z,95069.32
2019-04-16T16:25:05.890Z,95072.27
2019-04-16T16:27:32.487Z,95090.30
2019-04-16T16:30:00.000Z,95089.09
2019-04-16T16:32:27.428Z,95087.77
2019-04-16T16:34:55.529Z,95083.89
2019-04-16T16:37:23.334Z,95077.44
2019-04-16T16:39:50.733Z,95087.13
2019-04-16T16:42:18.239Z,95081.42
2019-04-16T16:44:45.750Z,95089.44
2019-04-16T16:47:32.828Z,95048.55
2019-04-16T16:50:00.746Z,95079.53
2019-04-16T16:53:06.059Z,95083.77
2019-04-16T16:55:37.736Z,95083.95
2019-04-16T16:58:31.165Z,95084.20
2019-04-16T17:01:18.315Z,95079.41
2019-04-16T17:04:08.569Z,95081.55
2019-04-16T17:06:36.728Z,95082.45
2019-04-16T17:09:06.036Z,95091.06
2019-04-16T17:11:33.430Z,95079.75
2019-04-16T17:14:02.231Z,95081.27
2019-04-16T17:16:30.490Z,95084.84
2019-04-16T17:18:58.532Z,95085.30
2019-04-16T17:21:26.112Z,95088.91
2019-04-16T17:23:53.842Z,95082.72
2019-04-16T17:26:21.341Z,95083.05
2019-04-16T17:28:48.860Z,95090.28
2019-04-16T17:31:16.459Z,95081.39
2019-04-16T17:33:44.032Z,95080.65
2019-04-16T17:36:11.885Z,95091.15
2019-04-16T17:38:39.283Z,95091.48
2019-04-16T17:41:09.735Z,95093.31
2019-04-16T17:43:59.698Z,95091.33
2019-04-16T17:46:34.149Z,95100.37
2019-04-16T17:49:20.128Z,95091.45
2019-04-16T17:52:09.925Z,95092.05
2019-04-16T17:54:41.192Z,95100.80
2019-04-16T17:57:30.712Z,95103.70
2019-04-16T18:00:17.742Z,95108.66
2019-04-16T18:03:08.203Z,95116.62
2019-04-16T18:05:43.546Z,95113.32
2019-04-16T18:08:29.493Z,95116.31
2019-04-16T18:11:15.104Z,95126.41
2019-04-16T18:14:14.039Z,95131.83
2019-04-16T18:16:50.070Z,95127.27
2019-04-16T18:19:36.115Z,95127.00
2019-04-16T18:22:15.712Z,95135.69
2019-04-16T18:25:14.644Z,95129.95
2019-04-16T18:27:49.891Z,95138.53
2019-04-16T18:30:35.447Z,95124.88
2019-04-16T18:33:40.499Z,95125.05
2019-04-16T18:36:23.044Z,95128.23
2019-04-16T18:39:10.225Z,95133.05
2019-04-16T18:41:42.355Z,95138.30
2019-04-16T18:44:29.269Z,95131.81
2019-04-16T18:47:28.747Z,95140.11
2019-04-16T18:49:59.067Z,95134.53
2019-04-16T18:52:27.412Z,95139.96
2019-04-16T18:54:54.888Z,95131.34
2019-04-16T18:57:22.363Z,95139.16
2019-04-16T18:59:49.768Z,95136.27
2019-04-16T19:02:17.225Z,95143.19
2019-04-16T19:04:44.831Z,95142.99
2019-04-16T19:07:12.733Z,95143.95
2019-04-16T19:09:41.241Z,95149.07
2019-04-16T19:12:08.982Z,95140.69
2019-04-16T19:14:36.909Z,95145.66
2019-04-16T19:17:04.949Z,95150.78
2019-04-16T19:19:32.456Z,95153.49
2019-04-16T19:21:59.881Z,95153.20
2019-04-16T19:24:27.375Z,95146.89
2019-04-16T19:26:55.472Z,95149.09
2019-04-16T19:29:23.009Z,95147.14
2019-04-16T19:31:54.767Z,95155.53
2019-04-16T19:34:19.852Z,95150.08
2019-04-16T19:36:47.421Z,95155.15
2019-04-16T19:39:15.551Z,95148.66
2019-04-16T19:41:43.374Z,95155.23
2019-04-16T19:44:10.869Z,95156.23
2019-04-16T19:46:38.355Z,95149.48
2019-04-16T19:49:05.944Z,95153.34
2019-04-16T19:51:33.444Z,95165.00
2019-04-16T19:54:01.573Z,95160.63
2019-04-16T19:56:29.068Z,95157.33
2019-04-16T19:58:56.545Z,95160.73
2019-04-16T20:01:24.392Z,95166.70
2019-04-16T20:03:53.444Z,95165.66
2019-04-16T20:06:25.309Z,95156.95
2019-04-16T20:08:52.048Z,95162.86
2019-04-16T20:11:21.630Z,95152.24
2019-04-16T20:13:49.331Z,95166.24
2019-04-16T20:16:16.912Z,95156.30
2019-04-16T20:18:51.251Z,95159.89
2019-04-16T20:21:13.651Z,95170.37
2019-04-16T20:23:41.226Z,95158.98
2019-04-16T20:26:08.945Z,95170.91
2019-04-16T20:28:36.429Z,95158.23
2019-04-16T20:31:04.774Z,95160.97
2019-04-16T20:33:32.415Z,95162.14
2019-04-16T20:36:00.069Z,95163.08
2019-04-16T20:38:29.305Z,95161.50
2019-04-16T20:40:56.827Z,95160.73
2019-04-16T20:43:24.262Z,95162.55
2019-04-16T20:45:51.713Z,95162.41
2019-04-16T20:48:19.297Z,95157.12
2019-04-16T20:50:46.775Z,95157.25
2019-04-16T20:53:14.230Z,95156.18
2019-04-16T20:55:47.082Z,95160.59
2019-04-16T20:58:14.606Z,95152.63
2019-04-16T21:00:43.633Z,95150.20
2019-04-16T21:03:21.859Z,95153.47
2019-04-16T21:05:40.512Z,95147.78
2019-04-16T21:08:08.010Z,95156.08
2019-04-16T21:10:36.357Z,95154.73
2019-04-16T21:13:04.587Z,95156.97
2019-04-16T21:15:32.162Z,95154.10
2019-04-16T21:17:59.633Z,95155.88
2019-04-16T21:20:27.131Z,95151.70
2019-04-16T21:22:57.513Z,95154.41
2019-04-16T21:25:23.964Z,95146.45
2019-04-16T21:28:13.502Z,95142.22
2019-04-16T21:30:43.423Z,95149.27
2019-04-16T21:33:20.568Z,95145.35
2019-04-16T21:35:51.230Z,95134.20
2019-04-16T21:38:47.064Z,95139.47
2019-04-16T21:41:14.489Z,95135.72
2019-04-16T21:43:41.880Z,95138.43
2019-04-16T21:46:09.379Z,95138.12
2019-04-16T21:48:36.837Z,95138.55
2019-04-16T21:51:04.261Z,95138.55
2019-04-16T21:53:31.684Z,95145.09
2019-04-16T21:55:59.245Z,95144.41
2019-04-16T21:58:26.687Z,95143.33
2019-04-16T22:01:13.759Z,95147.49
2019-04-16T22:03:43.015Z,95147.67
2019-04-16T22:06:10.638Z,95141.17
2019-04-16T22:08:38.038Z,95145.66
2019-04-16T22:11:08.550Z,95146.00
2019-04-16T22:13:34.951Z,95142.34
2019-04-16T22:16:02.571Z,95151.50
2019-04-16T22:18:30.145Z,95147.83
2019-04-16T22:20:57.751Z,95150.09
2019-04-16T22:23:25.280Z,95147.66
2019-04-16T22:25:52.744Z,95146.40
2019-04-16T22:28:20.253Z,95146.40
2019-04-16T22:30:51.178Z,95156.23
2019-04-16T22:33:17.059Z,95155.63
2019-04-16T22:35:44.588Z,95155.07
2019-04-16T22:38:14.349Z,95145.95
2019-04-16T22:40:54.920Z,95153.16
2019-04-16T22:43:51.348Z,95151.56
2019-04-16T22:46:31.433Z,95154.94
2019-04-16T22:48:59.743Z,95156.31
2019-04-16T22:51:27.219Z,95153.56
2019-04-16T22:53:54.784Z,95150.62
2019-04-16T22:56:29.018Z,95157.66
2019-04-16T22:58:56.691Z,95159.04
2019-04-16T23:01:25.076Z,95161.63
2019-04-16T23:03:53.305Z,95153.39
2019-04-16T23:06:22.010Z,95160.74
2019-04-16T23:08:49.486Z,95156.33
2019-04-16T23:11:17.002Z,95160.09
2019-04-16T23:13:44.502Z,95155.89
2019-04-16T23:16:12.158Z,95159.45
2019-04-16T23:18:39.721Z,95156.03
2019-04-16T23:21:10.018Z,95150.70
2019-04-16T23:23:36.547Z,95161.86
2019-04-16T23:26:04.063Z,95160.54
2019-04-16T23:28:31.456Z,95157.52
2019-04-16T23:30:58.885Z,95151.86
2019-04-16T23:33:26.442Z,95156.34
2019-04-16T23:35:53.853Z,95149.14
2019-04-16T23:38:21.378Z,95158.25
2019-04-16T23:40:48.895Z,95155.14
2019-04-16T23:43:34.599Z,95152.66
2019-04-16T23:46:34.602Z,95157.51
2019-04-16T23:49:31.629Z,95152.88
2019-04-16T23:52:10.610Z,95155.42
2019-04-16T23:54:52.315Z,95147.36
2019-04-16T23:57:27.553Z,95154.30
